^^
Saratoga-Weather Station Historical Data
Daily Summary for September 26, 2020 Units:  Metric    English   Both
Daily Weekly Monthly Yearly Custom
  High: Low: Average:
Temperature: 24.1 °C 17 °C 20.2 °C
Dew Point: 15.7 °C 10.7 °C 12.5 °C
Humidity: 79% 46% 62%
Wind Speed: 30.6km/h 0km/h 10km/h
Wind Gust: 37km/h - -
Wind- - West
Pressure: 1018.3 hPa 1006.4 hPa -
Precipitation: 0.0 mm    
Historical Graphs
 
 
Tabular Data for September 26, 2020
Time Temperature Dew Point Pressure Wind Wind Speed Wind Gust Humidity Rainfall Rate (Hourly) solar
00:01 24.1 °C 15.3 °C 1006.4 hPa WNW 9.7 km/h 25.7 km/h 58% 0.0 mm 0 W/m2
00:06 24.1 °C 15.3 °C 1006.4 hPa WNW 3.2 km/h 14.5 km/h 58% 0.0 mm 0 W/m2
00:11 24 °C 15.2 °C 1006.4 hPa SW 6.4 km/h 24.1 km/h 58% 0.0 mm 0 W/m2
00:16 23.9 °C 15.4 °C 1006.4 hPa West 6.4 km/h 19.3 km/h 59% 0.0 mm 0 W/m2
00:21 23.8 °C 15.3 °C 1006.4 hPa West 16.3 km/h 24.1 km/h 59% 0.0 mm 0 W/m2
00:27 23.7 °C 15.2 °C 1006.4 hPa NNW 4.7 km/h 12.9 km/h 59% 0.0 mm 0 W/m2
00:32 23.6 °C 15.1 °C 1006.4 hPa West 14.3 km/h 20.9 km/h 59% 0.0 mm 0 W/m2
00:37 23.4 °C 14.9 °C 1006.4 hPa WSW 3.2 km/h 14.5 km/h 59% 0.0 mm 0 W/m2
00:42 23.3 °C 15.1 °C 1006.4 hPa NNW 9.7 km/h 16.1 km/h 60% 0.0 mm 0 W/m2
00:47 23.2 °C 15 °C 1006.4 hPa NW 3.2 km/h 16.1 km/h 60% 0.0 mm 0 W/m2
00:52 23.1 °C 15.2 °C 1006.4 hPa West 14.3 km/h 25.7 km/h 61% 0.0 mm 0 W/m2
00:57 23.1 °C 15.4 °C 1006.8 hPa West 11.1 km/h 17.7 km/h 62% 0.0 mm 0 W/m2
01:02 22.9 °C 15.5 °C 1006.8 hPa NW 9.7 km/h 11.3 km/h 63% 0.0 mm 0 W/m2
01:07 22.8 °C 15.4 °C 1006.8 hPa West 6.4 km/h 27.4 km/h 63% 0.0 mm 0 W/m2
01:12 22.8 °C 15.6 °C 1006.8 hPa WNW 4.7 km/h 8 km/h 64% 0.0 mm 0 W/m2
01:17 22.7 °C 15.5 °C 1006.8 hPa WSW 14.3 km/h 27.4 km/h 64% 0.0 mm 0 W/m2
01:22 22.6 °C 15.7 °C 1006.8 hPa NNW 14.3 km/h 25.7 km/h 65% 0.0 mm 0 W/m2
01:27 22.5 °C 15.6 °C 1006.8 hPa NW 7.9 km/h 12.9 km/h 65% 0.0 mm 0 W/m2
01:32 22.4 °C 15.5 °C 1006.8 hPa NW 6.4 km/h 17.7 km/h 65% 0.0 mm 0 W/m2
01:37 22.3 °C 15.4 °C 1007.1 hPa West 6.4 km/h 24.1 km/h 65% 0.0 mm 0 W/m2
01:42 22.2 °C 15.3 °C 1006.8 hPa WSW 3.2 km/h 9.7 km/h 65% 0.0 mm 0 W/m2
01:47 22.1 °C 15.2 °C 1006.8 hPa West 14.3 km/h 16.1 km/h 65% 0.0 mm 0 W/m2
01:52 21.9 °C 14.8 °C 1007.1 hPa NNW 16.3 km/h 22.5 km/h 64% 0.0 mm 0 W/m2
01:57 21.9 °C 14.5 °C 1007.1 hPa WNW 4.7 km/h 8 km/h 63% 0.0 mm 0 W/m2
02:02 21.8 °C 14.2 °C 1007.1 hPa WNW 6.4 km/h 22.5 km/h 62% 0.0 mm 0 W/m2
02:07 21.7 °C 14.1 °C 1007.1 hPa North 3.2 km/h 19.3 km/h 62% 0.0 mm 0 W/m2
02:12 21.6 °C 14.3 °C 1007.1 hPa NNW 3.2 km/h 17.7 km/h 63% 0.0 mm 0 W/m2
02:17 21.5 °C 14.4 °C 1007.1 hPa NW 14.3 km/h 14.5 km/h 64% 0.0 mm 0 W/m2
02:22 21.4 °C 14.3 °C 1007.5 hPa SW 6.4 km/h 20.9 km/h 64% 0.0 mm 0 W/m2
02:27 21.3 °C 14.5 °C 1007.5 hPa West 4.7 km/h 16.1 km/h 65% 0.0 mm 0 W/m2
02:32 21.1 °C 14.5 °C 1007.5 hPa WSW 7.9 km/h 12.9 km/h 66% 0.0 mm 0 W/m2
02:37 20.9 °C 14.3 °C 1007.5 hPa WNW 3.2 km/h 17.7 km/h 66% 0.0 mm 0 W/m2
02:43 20.8 °C 14.4 °C 1007.5 hPa WSW 11.1 km/h 12.9 km/h 67% 0.0 mm 0 W/m2
02:48 20.7 °C 14.4 °C 1007.5 hPa WNW 30.6 km/h 33.8 km/h 67% 0.0 mm 0 W/m2
02:53 20.6 °C 14.3 °C 1007.5 hPa WSW 20.9 km/h 20.9 km/h 67% 0.0 mm 0 W/m2
02:58 20.5 °C 14.4 °C 1007.5 hPa North 30.6 km/h 30.6 km/h 68% 0.0 mm 0 W/m2
03:03 20.4 °C 14.3 °C 1007.5 hPa WNW 3.2 km/h 16.1 km/h 68% 0.0 mm 0 W/m2
03:08 20.3 °C 14.2 °C 1007.8 hPa WNW 7.9 km/h 17.7 km/h 68% 0.0 mm 0 W/m2
03:13 20.3 °C 14.4 °C 1007.8 hPa WNW 6.4 km/h 16.1 km/h 69% 0.0 mm 0 W/m2
03:18 20.2 °C 14.3 °C 1007.8 hPa North 14.3 km/h 20.9 km/h 69% 0.0 mm 0 W/m2
03:23 20.2 °C 14.6 °C 1007.8 hPa West 9.7 km/h 14.5 km/h 70% 0.0 mm 0 W/m2
03:28 20.1 °C 14.5 °C 1007.8 hPa West 6.4 km/h 9.7 km/h 70% 0.0 mm 0 W/m2
03:33 19.9 °C 14.5 °C 1007.8 hPa West 9.7 km/h 14.5 km/h 71% 0.0 mm 0 W/m2
03:38 19.9 °C 14.5 °C 1008.1 hPa NW 3.2 km/h 11.3 km/h 71% 0.0 mm 0 W/m2
03:43 19.8 °C 14.6 °C 1008.1 hPa North 6.4 km/h 16.1 km/h 72% 0.0 mm 0 W/m2
03:48 19.8 °C 14.6 °C 1008.1 hPa North 4.7 km/h 17.7 km/h 72% 0.0 mm 0 W/m2
03:53 19.7 °C 14.5 °C 1008.5 hPa NNW 4.7 km/h 11.3 km/h 72% 0.0 mm 0 W/m2
03:58 19.7 °C 14.7 °C 1008.5 hPa West 6.4 km/h 19.3 km/h 73% 0.0 mm 0 W/m2
04:03 19.7 °C 14.7 °C 1008.5 hPa SW 6.4 km/h 19.3 km/h 73% 0.0 mm 0 W/m2
04:08 19.6 °C 14.6 °C 1008.5 hPa West 9.7 km/h 25.7 km/h 73% 0.0 mm 0 W/m2
04:13 19.5 °C 14.5 °C 1008.5 hPa NNW 6.4 km/h 9.7 km/h 73% 0.0 mm 0 W/m2
04:18 19.4 °C 14.4 °C 1008.5 hPa North 6.4 km/h 25.7 km/h 73% 0.0 mm 0 W/m2
04:23 19.3 °C 14.3 °C 1008.8 hPa NNE 6.4 km/h 17.7 km/h 73% 0.0 mm 0 W/m2
04:28 19.3 °C 14.3 °C 1008.8 hPa NW 17.7 km/h 17.7 km/h 73% 0.0 mm 0 W/m2
04:33 19.2 °C 14.5 °C 1008.8 hPa NW 7.9 km/h 19.3 km/h 74% 0.0 mm 0 W/m2
04:38 19.1 °C 14.4 °C 1008.8 hPa WSW 6.4 km/h 16.1 km/h 74% 0.0 mm 0 W/m2
04:43 19.1 °C 14.4 °C 1008.8 hPa West 17.7 km/h 22.5 km/h 74% 0.0 mm 0 W/m2
04:48 18.9 °C 14.2 °C 1008.8 hPa SSW 1.4 km/h 16.1 km/h 74% 0.0 mm 0 W/m2
04:53 18.9 °C 14.2 °C 1008.8 hPa NW 4.7 km/h 16.1 km/h 74% 0.0 mm 0 W/m2
04:58 18.8 °C 14.1 °C 1009.1 hPa WSW 9.7 km/h 20.9 km/h 74% 0.0 mm 0 W/m2
05:03 18.7 °C 14 °C 1009.1 hPa West 6.4 km/h 22.5 km/h 74% 0.0 mm 0 W/m2
05:09 18.6 °C 13.9 °C 1009.1 hPa SE 13 km/h 24.1 km/h 74% 0.0 mm 0 W/m2
05:14 18.6 °C 13.9 °C 1009.1 hPa WNW 6.4 km/h 9.7 km/h 74% 0.0 mm 0 W/m2
05:19 18.4 °C 13.9 °C 1009.1 hPa NW 14.3 km/h 25.7 km/h 75% 0.0 mm 0 W/m2
05:24 18.3 °C 13.8 °C 1009.1 hPa WNW 14.3 km/h 14.5 km/h 75% 0.0 mm 0 W/m2
05:29 18.3 °C 13.8 °C 1009.5 hPa WNW 4.7 km/h 11.3 km/h 75% 0.0 mm 0 W/m2
05:34 18.2 °C 13.7 °C 1009.5 hPa West 13 km/h 20.9 km/h 75% 0.0 mm 0 W/m2
05:39 18.1 °C 13.6 °C 1009.5 hPa WNW 6.4 km/h 19.3 km/h 75% 0.0 mm 0 W/m2
05:44 18 °C 13.5 °C 1009.5 hPa NNW 3.2 km/h 17.7 km/h 75% 0.0 mm 0 W/m2
05:49 17.8 °C 13.5 °C 1009.5 hPa WNW 7.9 km/h 16.1 km/h 76% 0.0 mm 0 W/m2
05:54 17.8 °C 13.5 °C 1009.5 hPa WNW 11.1 km/h 11.3 km/h 76% 0.0 mm 0 W/m2
05:59 17.7 °C 13.4 °C 1009.8 hPa WSW 4.7 km/h 16.1 km/h 76% 0.0 mm 0 W/m2
06:04 17.6 °C 13.5 °C 1009.8 hPa West 4.7 km/h 8 km/h 77% 0.0 mm 0 W/m2
06:09 17.4 °C 13.3 °C 1009.8 hPa WNW 16.3 km/h 17.7 km/h 77% 0.0 mm 0 W/m2
06:15 17.3 °C 13.4 °C 1009.8 hPa WNW 14.3 km/h 20.9 km/h 78% 0.0 mm 0 W/m2
06:20 17.3 °C 13.4 °C 1009.8 hPa NW 14.3 km/h 20.9 km/h 78% 0.0 mm 0 W/m2
06:25 17.2 °C 13.3 °C 1009.8 hPa WNW 4.7 km/h 14.5 km/h 78% 0.0 mm 0 W/m2
06:30 17.2 °C 13.3 °C 1009.8 hPa WNW 13 km/h 19.3 km/h 78% 0.0 mm 0 W/m2
06:35 17.1 °C 13.4 °C 1010.2 hPa South 1.4 km/h 19.3 km/h 79% 0.0 mm 0 W/m2
06:40 17.1 °C 13.4 °C 1009.8 hPa West 14.3 km/h 14.5 km/h 79% 0.0 mm 0 W/m2
06:45 17.1 °C 13.4 °C 1010.2 hPa WNW 14.3 km/h 19.3 km/h 79% 0.0 mm 0 W/m2
06:50 17.1 °C 13.4 °C 1010.2 hPa SW 7.9 km/h 17.7 km/h 79% 0.0 mm 5 W/m2
06:55 17 °C 13.3 °C 1010.2 hPa West 6.4 km/h 14.5 km/h 79% 0.0 mm 7 W/m2
07:00 17 °C 13.3 °C 1010.2 hPa West 9.7 km/h 16.1 km/h 79% 0.0 mm 11 W/m2
07:05 17 °C 13.3 °C 1010.2 hPa WSW 14.3 km/h 19.3 km/h 79% 0.0 mm 14 W/m2
07:10 17 °C 13.3 °C 1010.2 hPa West 9.7 km/h 27.4 km/h 79% 0.0 mm 14 W/m2
07:15 17 °C 13.3 °C 1010.2 hPa WNW 25.9 km/h 25.7 km/h 79% 0.0 mm 23 W/m2
07:20 17 °C 13.3 °C 1010.2 hPa NW 11.1 km/h 14.5 km/h 79% 0.0 mm 21 W/m2
07:25 17.1 °C 13.4 °C 1010.2 hPa NW 9.7 km/h 24.1 km/h 79% 0.0 mm 25 W/m2
07:30 17.1 °C 13.4 °C 1010.2 hPa SW 9.7 km/h 16.1 km/h 79% 0.0 mm 33 W/m2
07:35 17.1 °C 13.4 °C 1010.5 hPa West 11.1 km/h 24.1 km/h 79% 0.0 mm 21 W/m2
07:40 17.1 °C 13.4 °C 1010.5 hPa WNW 14.3 km/h 17.7 km/h 79% 0.0 mm 39 W/m2
07:45 17.1 °C 13.4 °C 1010.8 hPa WNW 11.1 km/h 24.1 km/h 79% 0.0 mm 49 W/m2
07:50 17.1 °C 13.2 °C 1010.8 hPa WNW 13 km/h 19.3 km/h 78% 0.0 mm 56 W/m2
07:55 17.1 °C 13.4 °C 1010.8 hPa West 9.7 km/h 16.1 km/h 79% 0.0 mm 44 W/m2
08:00 17.1 °C 13.2 °C 1010.8 hPa West 13 km/h 25.7 km/h 78% 0.0 mm 49 W/m2
08:05 17.1 °C 13.2 °C 1011.2 hPa West 13 km/h 14.5 km/h 78% 0.0 mm 84 W/m2
08:10 17.2 °C 13.3 °C 1010.8 hPa West 4.7 km/h 25.7 km/h 78% 0.0 mm 91 W/m2
08:15 17.3 °C 13.4 °C 1011.2 hPa NW 7.9 km/h 12.9 km/h 78% 0.0 mm 81 W/m2
08:20 17.3 °C 13.2 °C 1011.2 hPa West 9.7 km/h 12.9 km/h 77% 0.0 mm 104 W/m2
08:25 17.3 °C 13.2 °C 1011.2 hPa NW 6.4 km/h 22.5 km/h 77% 0.0 mm 76 W/m2
08:30 17.3 °C 13.2 °C 1011.2 hPa NW 19.5 km/h 20.9 km/h 77% 0.0 mm 93 W/m2
08:35 17.3 °C 13.2 °C 1011.2 hPa WNW 13 km/h 12.9 km/h 77% 0.0 mm 100 W/m2
08:40 17.4 °C 13.1 °C 1011.5 hPa West 16.3 km/h 20.9 km/h 76% 0.0 mm 86 W/m2
08:45 17.5 °C 13 °C 1011.5 hPa SW 16.3 km/h 17.7 km/h 75% 0.0 mm 142 W/m2
08:50 17.6 °C 13.1 °C 1011.5 hPa West 11.1 km/h 12.9 km/h 75% 0.0 mm 111 W/m2
08:55 17.6 °C 12.9 °C 1011.9 hPa West 19.5 km/h 20.9 km/h 74% 0.0 mm 118 W/m2
09:00 17.6 °C 12.9 °C 1011.9 hPa West 13 km/h 24.1 km/h 74% 0.0 mm 144 W/m2
09:05 17.6 °C 12.7 °C 1011.9 hPa NW 4.7 km/h 19.3 km/h 73% 0.0 mm 91 W/m2
09:10 17.6 °C 12.5 °C 1011.9 hPa WNW 7.9 km/h 24.1 km/h 72% 0.0 mm 211 W/m2
09:15 17.7 °C 12.8 °C 1011.9 hPa WNW 7.9 km/h 19.3 km/h 73% 0.0 mm 309 W/m2
09:20 17.8 °C 12.3 °C 1011.9 hPa WNW 13 km/h 32.2 km/h 70% 0.0 mm 169 W/m2
09:25 18 °C 12.2 °C 1011.9 hPa WNW 13 km/h 16.1 km/h 69% 0.0 mm 156 W/m2
09:30 18.3 °C 12.5 °C 1011.9 hPa WSW 24.1 km/h 29 km/h 69% 0.0 mm 295 W/m2
09:35 18.3 °C 12.3 °C 1012.2 hPa WNW 16.3 km/h 22.5 km/h 68% 0.0 mm 105 W/m2
09:40 18.1 °C 12.3 °C 1012.2 hPa WNW 16.3 km/h 17.7 km/h 69% 0.0 mm 127 W/m2
09:45 17.9 °C 12.4 °C 1012.2 hPa WNW 13 km/h 19.3 km/h 70% 0.0 mm 216 W/m2
09:50 18 °C 12.2 °C 1012.2 hPa West 3.2 km/h 16.1 km/h 69% 0.0 mm 162 W/m2
09:55 18 °C 12 °C 1012.5 hPa WSW 17.7 km/h 24.1 km/h 68% 0.0 mm 156 W/m2
10:00 18 °C 12 °C 1012.5 hPa NW 9.7 km/h 17.7 km/h 68% 0.0 mm 132 W/m2
10:05 18 °C 12 °C 1012.9 hPa SSW 9.7 km/h 12.9 km/h 68% 0.0 mm 116 W/m2
10:10 18 °C 11.8 °C 1012.9 hPa WNW 11.1 km/h 19.3 km/h 67% 0.0 mm 120 W/m2
10:15 18 °C 11.8 °C 1012.9 hPa West 4.7 km/h 22.5 km/h 67% 0.0 mm 171 W/m2
10:20 18.1 °C 11.9 °C 1012.9 hPa West 9.7 km/h 14.5 km/h 67% 0.0 mm 176 W/m2
10:25 18.2 °C 12 °C 1012.9 hPa SSW 7.9 km/h 17.7 km/h 67% 0.0 mm 239 W/m2
10:30 18.4 °C 11.7 °C 1012.9 hPa West 16.3 km/h 22.5 km/h 65% 0.0 mm 190 W/m2
10:35 18.4 °C 11.5 °C 1012.9 hPa NW 13 km/h 19.3 km/h 64% 0.0 mm 232 W/m2
10:40 18.4 °C 11.5 °C 1012.9 hPa NNW 4.7 km/h 22.5 km/h 64% 0.0 mm 234 W/m2
10:46 18.7 °C 12 °C 1012.9 hPa West 11.1 km/h 29 km/h 65% 0.0 mm 223 W/m2
10:51 18.7 °C 11.8 °C 1012.9 hPa WSW 13 km/h 20.9 km/h 64% 0.0 mm 320 W/m2
10:56 18.9 °C 11.7 °C 1012.9 hPa WNW 17.7 km/h 29 km/h 63% 0.0 mm 246 W/m2
11:01 18.9 °C 11.9 °C 1012.9 hPa West 4.7 km/h 16.1 km/h 64% 0.0 mm 272 W/m2
11:06 19.1 °C 12.1 °C 1012.9 hPa WSW 4.7 km/h 14.5 km/h 64% 0.0 mm 230 W/m2
11:11 19.1 °C 11.9 °C 1013.2 hPa WSW 6.4 km/h 32.2 km/h 63% 0.0 mm 197 W/m2
11:16 18.9 °C 11.9 °C 1013.2 hPa WNW 17.7 km/h 25.7 km/h 64% 0.0 mm 367 W/m2
11:21 19.1 °C 12.1 °C 1013.2 hPa West 16.3 km/h 22.5 km/h 64% 0.0 mm 243 W/m2
11:26 19 °C 11.8 °C 1013.5 hPa WSW 7.9 km/h 16.1 km/h 63% 0.0 mm 218 W/m2
11:31 18.9 °C 11.9 °C 1013.5 hPa NW 13 km/h 17.7 km/h 64% 0.0 mm 260 W/m2
11:36 18.9 °C 11.9 °C 1013.5 hPa WSW 4.7 km/h 11.3 km/h 64% 0.0 mm 295 W/m2
11:41 18.9 °C 11.7 °C 1013.5 hPa WSW 9.7 km/h 27.4 km/h 63% 0.0 mm 241 W/m2
11:46 18.9 °C 11.9 °C 1013.5 hPa WSW 6.4 km/h 12.9 km/h 64% 0.0 mm 271 W/m2
11:52 18.9 °C 11.7 °C 1013.5 hPa West 13 km/h 30.6 km/h 63% 0.0 mm 306 W/m2
11:57 19 °C 12 °C 1013.5 hPa North 14.3 km/h 19.3 km/h 64% 0.0 mm 338 W/m2
12:02 19.1 °C 11.9 °C 1013.5 hPa SSW 13 km/h 30.6 km/h 63% 0.0 mm 251 W/m2
12:07 19.2 °C 11.7 °C 1013.5 hPa WNW 14.3 km/h 27.4 km/h 62% 0.0 mm 262 W/m2
12:12 19.2 °C 12 °C 1013.9 hPa West 13 km/h 29 km/h 63% 0.0 mm 318 W/m2
12:17 19.4 °C 11.9 °C 1013.5 hPa West 11.1 km/h 19.3 km/h 62% 0.0 mm 311 W/m2
12:22 19.7 °C 12.2 °C 1013.5 hPa WNW 24.1 km/h 24.1 km/h 62% 0.0 mm 294 W/m2
12:27 19.7 °C 12 °C 1013.5 hPa West 22.7 km/h 27.4 km/h 61% 0.0 mm 311 W/m2
12:32 19.8 °C 12.1 °C 1013.5 hPa WSW 20.9 km/h 20.9 km/h 61% 0.0 mm 429 W/m2
12:37 19.8 °C 12.1 °C 1013.9 hPa West 6.4 km/h 27.4 km/h 61% 0.0 mm 322 W/m2
12:42 19.8 °C 12.3 °C 1013.5 hPa West 6.4 km/h 16.1 km/h 62% 0.0 mm 292 W/m2
12:48 19.9 °C 11.9 °C 1013.9 hPa NW 16.3 km/h 22.5 km/h 60% 0.0 mm 422 W/m2
12:53 20.3 °C 12.3 °C 1013.5 hPa NW 24.1 km/h 24.1 km/h 60% 0.0 mm 977 W/m2
12:58 20.6 °C 12.3 °C 1013.9 hPa WNW 6.4 km/h 24.1 km/h 59% 0.0 mm 995 W/m2
13:03 20.6 °C 12 °C 1013.5 hPa NW 16.3 km/h 24.1 km/h 58% 0.0 mm 288 W/m2
13:08 20.4 °C 11.9 °C 1013.9 hPa NW 11.1 km/h 25.7 km/h 58% 0.0 mm 279 W/m2
13:13 20.4 °C 11.9 °C 1013.5 hPa SSW 13 km/h 20.9 km/h 58% 0.0 mm 253 W/m2
13:18 20.3 °C 11.8 °C 1013.5 hPa NW 17.7 km/h 24.1 km/h 58% 0.0 mm 255 W/m2
13:24 20.4 °C 11.9 °C 1013.5 hPa WSW 13 km/h 17.7 km/h 58% 0.0 mm 279 W/m2
13:29 20.4 °C 11.9 °C 1013.5 hPa WNW 7.9 km/h 25.7 km/h 58% 0.0 mm 237 W/m2
13:34 20.7 °C 11.9 °C 1013.5 hPa WNW 25.9 km/h 25.7 km/h 57% 0.0 mm 974 W/m2
13:39 20.6 °C 11.5 °C 1013.9 hPa NNW 3.2 km/h 35.4 km/h 56% 0.0 mm 299 W/m2
13:44 20.9 °C 11.8 °C 1013.9 hPa WSW 16.3 km/h 20.9 km/h 56% 0.0 mm 299 W/m2
13:49 21.1 °C 12 °C 1013.9 hPa North 27.4 km/h 27.4 km/h 56% 0.0 mm 779 W/m2
13:54 21.4 °C 12 °C 1013.5 hPa West 14.3 km/h 17.7 km/h 55% 0.0 mm 867 W/m2
13:59 21.7 °C 12.3 °C 1013.5 hPa WNW 7.9 km/h 11.3 km/h 55% 0.0 mm 860 W/m2
14:04 21.9 °C 11.9 °C 1013.5 hPa NW 27.4 km/h 27.4 km/h 53% 0.0 mm 863 W/m2
14:09 22.1 °C 12.1 °C 1013.5 hPa WNW 6.4 km/h 14.5 km/h 53% 0.0 mm 1051 W/m2
14:14 22.3 °C 12 °C 1013.9 hPa NW 13 km/h 17.7 km/h 52% 0.0 mm 360 W/m2
14:19 22.2 °C 11.9 °C 1013.9 hPa WNW 17.7 km/h 29 km/h 52% 0.0 mm 933 W/m2
14:24 22.2 °C 11.9 °C 1013.9 hPa NNW 17.7 km/h 22.5 km/h 52% 0.0 mm 276 W/m2
14:29 22.2 °C 11.9 °C 1013.9 hPa West 20.9 km/h 29 km/h 52% 0.0 mm 248 W/m2
14:34 21.8 °C 11.8 °C 1014.2 hPa WNW 13 km/h 24.1 km/h 53% 0.0 mm 983 W/m2
14:39 22.1 °C 11.8 °C 1014.2 hPa SW 4.7 km/h 20.9 km/h 52% 0.0 mm 281 W/m2
14:44 22.1 °C 11.8 °C 1014.2 hPa NW 7.9 km/h 19.3 km/h 52% 0.0 mm 352 W/m2
14:49 22.4 °C 12.1 °C 1014.2 hPa WNW 16.3 km/h 24.1 km/h 52% 0.0 mm 279 W/m2
14:54 22.6 °C 12.2 °C 1014.2 hPa WNW 13 km/h 12.9 km/h 52% 0.0 mm 279 W/m2
14:59 22.2 °C 11.6 °C 1014.2 hPa West 14.3 km/h 27.4 km/h 51% 0.0 mm 239 W/m2
15:04 21.9 °C 11.6 °C 1014.2 hPa SW 11.1 km/h 17.7 km/h 52% 0.0 mm 183 W/m2
15:09 21.8 °C 11.5 °C 1014.6 hPa WSW 6.4 km/h 17.7 km/h 52% 0.0 mm 271 W/m2
15:14 22.1 °C 11.8 °C 1014.2 hPa West 19.5 km/h 19.3 km/h 52% 0.0 mm 234 W/m2
15:19 22.3 °C 12 °C 1014.2 hPa WSW 13 km/h 17.7 km/h 52% 0.0 mm 826 W/m2
15:24 22.4 °C 11.8 °C 1014.6 hPa NW 13 km/h 24.1 km/h 51% 0.0 mm 237 W/m2
15:29 22.6 °C 11.6 °C 1014.6 hPa WNW 16.3 km/h 24.1 km/h 50% 0.0 mm 835 W/m2
15:34 22.7 °C 11.7 °C 1014.6 hPa WNW 9.7 km/h 37 km/h 50% 0.0 mm 288 W/m2
15:39 22.7 °C 11.7 °C 1014.6 hPa WNW 24.1 km/h 30.6 km/h 50% 0.0 mm 810 W/m2
15:44 22.6 °C 11.9 °C 1014.6 hPa NNW 6.4 km/h 14.5 km/h 51% 0.0 mm 737 W/m2
15:49 22.8 °C 11.8 °C 1014.6 hPa West 9.7 km/h 27.4 km/h 50% 0.0 mm 195 W/m2
15:54 22.9 °C 11.9 °C 1014.6 hPa West 3.2 km/h 19.3 km/h 50% 0.0 mm 190 W/m2
15:59 22.8 °C 11.8 °C 1014.6 hPa WNW 20.9 km/h 29 km/h 50% 0.0 mm 830 W/m2
16:04 22.6 °C 11.6 °C 1014.6 hPa West 17.7 km/h 17.7 km/h 50% 0.0 mm 257 W/m2
16:09 22.6 °C 11.6 °C 1014.6 hPa West 17.7 km/h 29 km/h 50% 0.0 mm 257 W/m2
16:14 22.6 °C 11.6 °C 1014.6 hPa NNW 13 km/h 19.3 km/h 50% 0.0 mm 171 W/m2
16:19 22.8 °C 11.5 °C 1014.6 hPa WSW 17.7 km/h 25.7 km/h 49% 0.0 mm 793 W/m2
16:24 23.1 °C 11.8 °C 1014.6 hPa WNW 17.7 km/h 27.4 km/h 49% 0.0 mm 684 W/m2
16:29 23 °C 11.7 °C 1014.6 hPa West 20.9 km/h 22.5 km/h 49% 0.0 mm 617 W/m2
16:34 23.1 °C 11.8 °C 1014.6 hPa SW 11.1 km/h 27.4 km/h 49% 0.0 mm 624 W/m2
16:39 23.4 °C 12.1 °C 1014.6 hPa NNE 14.3 km/h 16.1 km/h 49% 0.0 mm 592 W/m2
16:44 23.3 °C 11.7 °C 1014.6 hPa West 16.3 km/h 17.7 km/h 48% 0.0 mm 311 W/m2
16:49 23.3 °C 11.7 °C 1014.9 hPa West 14.3 km/h 24.1 km/h 48% 0.0 mm 561 W/m2
16:54 23.2 °C 11.6 °C 1014.6 hPa SW 17.7 km/h 17.7 km/h 48% 0.0 mm 624 W/m2
16:59 23.4 °C 11.8 °C 1014.6 hPa WNW 7.9 km/h 24.1 km/h 48% 0.0 mm 613 W/m2
17:04 23.5 °C 11.9 °C 1014.9 hPa NE 3.2 km/h 16.1 km/h 48% 0.0 mm 626 W/m2
17:09 23.4 °C 11.8 °C 1014.9 hPa NNW 16.3 km/h 17.7 km/h 48% 0.0 mm 582 W/m2
17:14 23.5 °C 11.5 °C 1014.9 hPa WSW 7.9 km/h 24.1 km/h 47% 0.0 mm 552 W/m2
17:19 23.7 °C 11.7 °C 1014.9 hPa WNW 6.4 km/h 11.3 km/h 47% 0.0 mm 520 W/m2
17:24 23.8 °C 11.5 °C 1014.9 hPa West 6.4 km/h 22.5 km/h 46% 0.0 mm 533 W/m2
17:29 23.5 °C 11.5 °C 1014.9 hPa WSW 19.5 km/h 22.5 km/h 47% 0.0 mm 128 W/m2
17:34 23.3 °C 11.4 °C 1014.9 hPa NW 16.3 km/h 16.1 km/h 47% 0.0 mm 114 W/m2
17:39 22.9 °C 11.3 °C 1014.9 hPa West 13 km/h 22.5 km/h 48% 0.0 mm 109 W/m2
17:44 22.8 °C 11.5 °C 1014.9 hPa WSW 7.9 km/h 14.5 km/h 49% 0.0 mm 98 W/m2
17:49 22.7 °C 11.1 °C 1015.2 hPa WNW 11.1 km/h 19.3 km/h 48% 0.0 mm 97 W/m2
17:54 22.7 °C 11.4 °C 1014.9 hPa West 14.3 km/h 14.5 km/h 49% 0.0 mm 98 W/m2
17:59 22.7 °C 11.4 °C 1015.2 hPa WNW 6.4 km/h 25.7 km/h 49% 0.0 mm 165 W/m2
18:04 22.6 °C 11 °C 1015.2 hPa WNW 14.3 km/h 22.5 km/h 48% 0.0 mm 107 W/m2
18:09 22.6 °C 11 °C 1015.2 hPa NW 13 km/h 14.5 km/h 48% 0.0 mm 137 W/m2
18:14 22.8 °C 11.5 °C 1015.2 hPa West 9.7 km/h 14.5 km/h 49% 0.0 mm 325 W/m2
18:20 22.8 °C 11.2 °C 1015.2 hPa West 13 km/h 12.9 km/h 48% 0.0 mm 309 W/m2
18:25 23 °C 11.1 °C 1015.2 hPa NW 7.9 km/h 16.1 km/h 47% 0.0 mm 378 W/m2
18:30 22.7 °C 11.1 °C 1015.2 hPa NW 6.4 km/h 20.9 km/h 48% 0.0 mm 88 W/m2
18:35 22.6 °C 11 °C 1015.2 hPa West 9.7 km/h 12.9 km/h 48% 0.0 mm 158 W/m2
18:40 22.5 °C 11.3 °C 1015.2 hPa NW 6.4 km/h 12.9 km/h 49% 0.0 mm 111 W/m2
18:45 22.5 °C 11.3 °C 1015.6 hPa NW 24.1 km/h 24.1 km/h 49% 0.0 mm 100 W/m2
18:50 22.4 °C 11.2 °C 1015.2 hPa NW 7.9 km/h 12.9 km/h 49% 0.0 mm 70 W/m2
18:55 22.3 °C 11.1 °C 1015.2 hPa SW 3.2 km/h 14.5 km/h 49% 0.0 mm 174 W/m2
19:00 22.3 °C 11.4 °C 1015.6 hPa SW 11.1 km/h 11.3 km/h 50% 0.0 mm 165 W/m2
19:05 22.3 °C 11.1 °C 1015.6 hPa WSW 7.9 km/h 20.9 km/h 49% 0.0 mm 76 W/m2
19:10 22.2 °C 11.3 °C 1015.6 hPa WSW 3.2 km/h 11.3 km/h 50% 0.0 mm 174 W/m2
19:15 22.3 °C 11.4 °C 1015.6 hPa West 3.2 km/h 6.4 km/h 50% 0.0 mm 70 W/m2
19:20 22.3 °C 11.4 °C 1015.6 hPa West 4.7 km/h 11.3 km/h 50% 0.0 mm 137 W/m2
19:25 22.3 °C 11.4 °C 1015.6 hPa WNW 4.7 km/h 6.4 km/h 50% 0.0 mm 114 W/m2
19:30 22.3 °C 11.4 °C 1015.6 hPa WSW 11.1 km/h 16.1 km/h 50% 0.0 mm 62 W/m2
19:35 22.1 °C 11.2 °C 1015.6 hPa West 6.4 km/h 12.9 km/h 50% 0.0 mm 93 W/m2
19:40 22 °C 11.1 °C 1015.9 hPa WNW 3.2 km/h 14.5 km/h 50% 0.0 mm 49 W/m2
19:45 21.9 °C 11 °C 1015.9 hPa WNW 4.7 km/h 11.3 km/h 50% 0.0 mm 60 W/m2
19:50 21.8 °C 11.2 °C 1015.9 hPa West 6.4 km/h 14.5 km/h 51% 0.0 mm 28 W/m2
19:55 21.7 °C 11.1 °C 1015.9 hPa WSW 9.7 km/h 9.7 km/h 51% 0.0 mm 28 W/m2
20:00 21.6 °C 11 °C 1015.9 hPa WSW 7.9 km/h 14.5 km/h 51% 0.0 mm 21 W/m2
20:05 21.4 °C 10.8 °C 1015.9 hPa West 6.4 km/h 14.5 km/h 51% 0.0 mm 18 W/m2
20:10 21.4 °C 10.8 °C 1016.3 hPa NW 7.9 km/h 12.9 km/h 51% 0.0 mm 12 W/m2
20:15 21.3 °C 10.8 °C 1016.3 hPa NW 4.7 km/h 14.5 km/h 51% 0.0 mm 9 W/m2
20:20 21.3 °C 10.8 °C 1016.3 hPa WSW 7.9 km/h 11.3 km/h 51% 0.0 mm 7 W/m2
20:25 21.2 °C 10.7 °C 1016.3 hPa West 3.2 km/h 11.3 km/h 51% 0.0 mm 5 W/m2
20:30 21 °C 10.8 °C 1016.3 hPa WNW 3.2 km/h 6.4 km/h 52% 0.0 mm 0 W/m2
20:35 20.8 °C 10.9 °C 1016.3 hPa WSW 4.7 km/h 6.4 km/h 53% 0.0 mm 0 W/m2
20:40 20.7 °C 10.8 °C 1016.3 hPa West 3.2 km/h 6.4 km/h 53% 0.0 mm 0 W/m2
20:45 20.6 °C 11 °C 1016.3 hPa West 4.7 km/h 14.5 km/h 54% 0.0 mm 0 W/m2
20:50 20.5 °C 10.9 °C 1016.6 hPa West 6.4 km/h 9.7 km/h 54% 0.0 mm 0 W/m2
20:55 20.4 °C 11.1 °C 1016.6 hPa WSW 6.4 km/h 14.5 km/h 55% 0.0 mm 0 W/m2
21:00 20.3 °C 11 °C 1016.3 hPa WSW 4.7 km/h 6.4 km/h 55% 0.0 mm 0 W/m2
21:05 20.2 °C 10.9 °C 1016.6 hPa West 3.2 km/h 4.8 km/h 55% 0.0 mm 0 W/m2
21:10 20.2 °C 11.1 °C 1016.6 hPa SW 4.7 km/h 6.4 km/h 56% 0.0 mm 0 W/m2
21:15 20 °C 11 °C 1016.6 hPa West 4.7 km/h 4.8 km/h 56% 0.0 mm 0 W/m2
21:20 19.9 °C 10.9 °C 1016.6 hPa WSW 6.4 km/h 11.3 km/h 56% 0.0 mm 0 W/m2
21:25 19.8 °C 10.8 °C 1016.6 hPa WNW 3.2 km/h 6.4 km/h 56% 0.0 mm 0 W/m2
21:30 19.7 °C 10.9 °C 1016.9 hPa West 4.7 km/h 11.3 km/h 57% 0.0 mm 0 W/m2
21:35 19.7 °C 10.9 °C 1016.9 hPa WSW 1.4 km/h 8 km/h 57% 0.0 mm 0 W/m2
21:40 19.6 °C 10.8 °C 1016.9 hPa West 4.7 km/h 6.4 km/h 57% 0.0 mm 0 W/m2
21:45 19.6 °C 10.8 °C 1016.9 hPa WNW 4.7 km/h 6.4 km/h 57% 0.0 mm 0 W/m2
21:50 19.6 °C 10.8 °C 1016.9 hPa WNW 4.7 km/h 6.4 km/h 57% 0.0 mm 0 W/m2
21:55 19.4 °C 10.9 °C 1017.3 hPa WNW 4.7 km/h 6.4 km/h 58% 0.0 mm 0 W/m2
22:00 19.4 °C 10.9 °C 1017.3 hPa West 11.1 km/h 11.3 km/h 58% 0.0 mm 0 W/m2
22:05 19.3 °C 10.8 °C 1017.3 hPa West 3.2 km/h 9.7 km/h 58% 0.0 mm 0 W/m2
22:10 19.3 °C 11.1 °C 1017.3 hPa West 4.7 km/h 4.8 km/h 59% 0.0 mm 0 W/m2
22:15 19.2 °C 11 °C 1017.3 hPa West 4.7 km/h 6.4 km/h 59% 0.0 mm 0 W/m2
22:20 19.1 °C 10.9 °C 1017.3 hPa West 3.2 km/h 14.5 km/h 59% 0.0 mm 0 W/m2
22:25 19.1 °C 10.9 °C 1017.3 hPa West 6.4 km/h 6.4 km/h 59% 0.0 mm 0 W/m2
22:31 19 °C 11.1 °C 1017.6 hPa WNW 3.2 km/h 12.9 km/h 60% 0.0 mm 0 W/m2
22:36 18.8 °C 11.1 °C 1017.6 hPa WNW 4.7 km/h 4.8 km/h 61% 0.0 mm 0 W/m2
22:41 18.5 °C 11.1 °C 1017.6 hPa WNW 3.2 km/h 6.4 km/h 62% 0.0 mm 0 W/m2
22:46 18.2 °C 11 °C 1018.0 hPa West 4.7 km/h 6.4 km/h 63% 0.0 mm 0 W/m2
22:51 17.9 °C 11 °C 1018.0 hPa WNW 3.2 km/h 4.8 km/h 64% 0.0 mm 0 W/m2
22:56 17.7 °C 11 °C 1018.0 hPa West 3.2 km/h 4.8 km/h 65% 0.0 mm 0 W/m2
23:01 17.6 °C 10.9 °C 1018.0 hPa WNW 3.2 km/h 4.8 km/h 65% 0.0 mm 0 W/m2
23:06 17.5 °C 11.1 °C 1018.0 hPa WNW 3.2 km/h 6.4 km/h 66% 0.0 mm 0 W/m2
23:11 17.5 °C 11.1 °C 1018.0 hPa West 3.2 km/h 6.4 km/h 66% 0.0 mm 0 W/m2
23:16 17.5 °C 11.1 °C 1018.0 hPa West 1.4 km/h 4.8 km/h 66% 0.0 mm 0 W/m2
23:21 17.4 °C 11 °C 1018.0 hPa West 3.2 km/h 6.4 km/h 66% 0.0 mm 0 W/m2
23:26 17.4 °C 11.2 °C 1018.0 hPa WSW 3.2 km/h 6.4 km/h 67% 0.0 mm 0 W/m2
23:31 17.4 °C 11.2 °C 1018.0 hPa West 3.2 km/h 4.8 km/h 67% 0.0 mm 0 W/m2
23:36 17.3 °C 11.3 °C 1018.0 hPa West 3.2 km/h 4.8 km/h 68% 0.0 mm 0 W/m2
23:41 17.3 °C 11.3 °C 1018.0 hPa Calm   3.2 km/h 68% 0.0 mm 0 W/m2
23:46 17.2 °C 11.2 °C 1018.3 hPa WSW 4.7 km/h 6.4 km/h 68% 0.0 mm 0 W/m2
23:51 17.1 °C 11.4 °C 1018.3 hPa WSW 4.7 km/h 8 km/h 69% 0.0 mm 0 W/m2
23:56 17 °C 11.5 °C 1018.3 hPa West 4.7 km/h 9.7 km/h 70% 0.0 mm 0 W/m2
Juneau County Weather
Compliments of Weather Underground - 4 mb